sensor_id;sensor_type;location;lat;lon;timestamp;P1;durP1;ratioP1;P2;durP2;ratioP2
14088;SDS011;7120;52.890;6.040;2024-02-26T00:00:04;21.63;;;19.20;;
14088;SDS011;7120;52.890;6.040;2024-02-26T00:02:33;25.23;;;19.43;;
14088;SDS011;7120;52.890;6.040;2024-02-26T00:05:03;23.47;;;18.77;;
14088;SDS011;7120;52.890;6.040;2024-02-26T00:07:31;23.30;;;18.67;;
14088;SDS011;7120;52.890;6.040;2024-02-26T00:09:57;22.60;;;17.60;;
14088;SDS011;7120;52.890;6.040;2024-02-26T00:12:22;24.47;;;18.60;;
14088;SDS011;7120;52.890;6.040;2024-02-26T00:14:47;24.67;;;18.30;;
14088;SDS011;7120;52.890;6.040;2024-02-26T00:17:14;24.40;;;18.30;;
14088;SDS011;7120;52.890;6.040;2024-02-26T00:19:40;22.37;;;18.33;;
14088;SDS011;7120;52.890;6.040;2024-02-26T00:22:05;24.27;;;17.53;;
14088;SDS011;7120;52.890;6.040;2024-02-26T00:24:30;24.73;;;19.57;;
14088;SDS011;7120;52.890;6.040;2024-02-26T00:26:56;23.70;;;17.70;;
14088;SDS011;7120;52.890;6.040;2024-02-26T00:29:21;25.43;;;18.67;;
14088;SDS011;7120;52.890;6.040;2024-02-26T00:31:46;22.90;;;17.90;;
14088;SDS011;7120;52.890;6.040;2024-02-26T00:34:12;23.37;;;19.43;;
14088;SDS011;7120;52.890;6.040;2024-02-26T00:36:37;22.90;;;18.40;;
14088;SDS011;7120;52.890;6.040;2024-02-26T00:39:02;26.20;;;19.17;;
14088;SDS011;7120;52.890;6.040;2024-02-26T00:41:28;22.63;;;17.87;;
14088;SDS011;7120;52.890;6.040;2024-02-26T00:43:54;26.03;;;20.50;;
14088;SDS011;7120;52.890;6.040;2024-02-26T00:46:19;25.70;;;19.63;;
14088;SDS011;7120;52.890;6.040;2024-02-26T00:48:44;23.43;;;18.93;;
14088;SDS011;7120;52.890;6.040;2024-02-26T00:51:10;27.53;;;18.67;;
14088;SDS011;7120;52.890;6.040;2024-02-26T00:53:35;27.27;;;18.73;;
14088;SDS011;7120;52.890;6.040;2024-02-26T00:56:00;26.93;;;20.23;;
14088;SDS011;7120;52.890;6.040;2024-02-26T00:58:26;26.07;;;18.83;;
14088;SDS011;7120;52.890;6.040;2024-02-26T01:00:52;24.93;;;18.67;;
14088;SDS011;7120;52.890;6.040;2024-02-26T01:03:17;24.83;;;18.63;;
14088;SDS011;7120;52.890;6.040;2024-02-26T01:05:43;24.83;;;18.63;;
14088;SDS011;7120;52.890;6.040;2024-02-26T01:08:08;23.87;;;18.77;;
14088;SDS011;7120;52.890;6.040;2024-02-26T01:10:34;23.87;;;18.03;;
14088;SDS011;7120;52.890;6.040;2024-02-26T01:12:59;25.33;;;18.93;;
14088;SDS011;7120;52.890;6.040;2024-02-26T01:15:25;26.60;;;19.47;;
14088;SDS011;7120;52.890;6.040;2024-02-26T01:17:50;29.23;;;19.40;;
14088;SDS011;7120;52.890;6.040;2024-02-26T01:20:16;30.00;;;19.50;;
14088;SDS011;7120;52.890;6.040;2024-02-26T01:22:42;26.07;;;19.63;;
14088;SDS011;7120;52.890;6.040;2024-02-26T01:25:08;24.03;;;18.27;;
14088;SDS011;7120;52.890;6.040;2024-02-26T01:27:34;25.00;;;17.80;;
14088;SDS011;7120;52.890;6.040;2024-02-26T01:30:02;27.60;;;18.93;;
14088;SDS011;7120;52.890;6.040;2024-02-26T01:32:31;26.97;;;19.57;;
14088;SDS011;7120;52.890;6.040;2024-02-26T01:34:56;28.33;;;20.87;;
14088;SDS011;7120;52.890;6.040;2024-02-26T01:37:22;31.27;;;21.87;;
14088;SDS011;7120;52.890;6.040;2024-02-26T01:39:47;33.60;;;21.73;;
14088;SDS011;7120;52.890;6.040;2024-02-26T01:42:13;30.80;;;21.63;;
14088;SDS011;7120;52.890;6.040;2024-02-26T01:44:38;33.63;;;22.87;;
14088;SDS011;7120;52.890;6.040;2024-02-26T01:47:05;36.07;;;23.53;;
14088;SDS011;7120;52.890;6.040;2024-02-26T01:49:33;36.40;;;22.80;;
14088;SDS011;7120;52.890;6.040;2024-02-26T01:52:00;37.30;;;23.97;;
14088;SDS011;7120;52.890;6.040;2024-02-26T01:54:26;35.53;;;23.97;;
14088;SDS011;7120;52.890;6.040;2024-02-26T01:56:52;36.40;;;22.17;;
14088;SDS011;7120;52.890;6.040;2024-02-26T01:59:17;37.13;;;24.00;;
14088;SDS011;7120;52.890;6.040;2024-02-26T02:01:45;41.40;;;23.37;;
14088;SDS011;7120;52.890;6.040;2024-02-26T02:04:17;38.90;;;24.67;;
14088;SDS011;7120;52.890;6.040;2024-02-26T02:06:43;46.43;;;25.93;;
14088;SDS011;7120;52.890;6.040;2024-02-26T02:09:11;41.57;;;26.13;;
14088;SDS011;7120;52.890;6.040;2024-02-26T02:11:36;49.27;;;27.17;;
14088;SDS011;7120;52.890;6.040;2024-02-26T02:14:02;48.27;;;29.13;;
14088;SDS011;7120;52.890;6.040;2024-02-26T02:16:28;46.03;;;28.13;;
14088;SDS011;7120;52.890;6.040;2024-02-26T02:18:53;48.77;;;28.07;;
14088;SDS011;7120;52.890;6.040;2024-02-26T02:21:19;56.63;;;29.90;;
14088;SDS011;7120;52.890;6.040;2024-02-26T02:23:44;51.53;;;29.60;;
14088;SDS011;7120;52.890;6.040;2024-02-26T02:26:11;54.23;;;28.27;;
14088;SDS011;7120;52.890;6.040;2024-02-26T02:28:40;53.37;;;30.00;;
14088;SDS011;7120;52.890;6.040;2024-02-26T02:31:06;56.77;;;30.30;;
14088;SDS011;7120;52.890;6.040;2024-02-26T02:33:32;50.77;;;30.50;;
14088;SDS011;7120;52.890;6.040;2024-02-26T02:35:59;51.43;;;30.80;;
14088;SDS011;7120;52.890;6.040;2024-02-26T02:38:24;47.67;;;27.93;;
14088;SDS011;7120;52.890;6.040;2024-02-26T02:40:51;48.80;;;29.73;;
14088;SDS011;7120;52.890;6.040;2024-02-26T02:43:17;58.43;;;31.33;;
14088;SDS011;7120;52.890;6.040;2024-02-26T02:45:42;56.00;;;30.23;;
14088;SDS011;7120;52.890;6.040;2024-02-26T02:48:07;53.87;;;31.07;;
14088;SDS011;7120;52.890;6.040;2024-02-26T02:50:33;54.67;;;31.00;;
14088;SDS011;7120;52.890;6.040;2024-02-26T02:52:58;53.50;;;31.93;;
14088;SDS011;7120;52.890;6.040;2024-02-26T02:55:23;59.03;;;32.97;;
14088;SDS011;7120;52.890;6.040;2024-02-26T02:57:49;52.90;;;31.57;;
14088;SDS011;7120;52.890;6.040;2024-02-26T03:00:14;56.40;;;33.10;;
14088;SDS011;7120;52.890;6.040;2024-02-26T03:02:40;51.87;;;31.33;;
14088;SDS011;7120;52.890;6.040;2024-02-26T03:05:05;50.00;;;31.93;;
14088;SDS011;7120;52.890;6.040;2024-02-26T03:07:31;53.17;;;32.23;;
14088;SDS011;7120;52.890;6.040;2024-02-26T03:09:56;44.30;;;28.43;;
14088;SDS011;7120;52.890;6.040;2024-02-26T03:12:22;42.13;;;28.13;;
14088;SDS011;7120;52.890;6.040;2024-02-26T03:14:47;46.60;;;28.07;;
14088;SDS011;7120;52.890;6.040;2024-02-26T03:17:13;43.30;;;28.13;;
14088;SDS011;7120;52.890;6.040;2024-02-26T03:19:38;39.83;;;27.63;;
14088;SDS011;7120;52.890;6.040;2024-02-26T03:22:04;38.83;;;26.30;;
14088;SDS011;7120;52.890;6.040;2024-02-26T03:24:29;39.67;;;27.40;;
14088;SDS011;7120;52.890;6.040;2024-02-26T03:26:55;39.60;;;26.00;;
14088;SDS011;7120;52.890;6.040;2024-02-26T03:29:21;35.53;;;25.37;;
14088;SDS011;7120;52.890;6.040;2024-02-26T03:31:46;35.30;;;25.20;;
14088;SDS011;7120;52.890;6.040;2024-02-26T03:34:11;33.03;;;23.10;;
14088;SDS011;7120;52.890;6.040;2024-02-26T03:36:38;32.17;;;25.37;;
14088;SDS011;7120;52.890;6.040;2024-02-26T03:39:04;33.10;;;24.47;;
14088;SDS011;7120;52.890;6.040;2024-02-26T03:41:32;28.80;;;22.80;;
14088;SDS011;7120;52.890;6.040;2024-02-26T03:44:00;30.17;;;22.83;;
14088;SDS011;7120;52.890;6.040;2024-02-26T03:46:26;27.87;;;22.37;;
14088;SDS011;7120;52.890;6.040;2024-02-26T03:48:51;28.47;;;21.53;;
14088;SDS011;7120;52.890;6.040;2024-02-26T03:51:16;30.47;;;21.40;;
14088;SDS011;7120;52.890;6.040;2024-02-26T03:53:42;27.13;;;20.40;;
14088;SDS011;7120;52.890;6.040;2024-02-26T03:56:07;27.67;;;21.20;;
14088;SDS011;7120;52.890;6.040;2024-02-26T03:58:33;25.00;;;18.83;;
14088;SDS011;7120;52.890;6.040;2024-02-26T04:01:01;25.30;;;19.87;;
14088;SDS011;7120;52.890;6.040;2024-02-26T04:03:27;23.67;;;19.53;;
14088;SDS011;7120;52.890;6.040;2024-02-26T04:05:52;23.20;;;17.60;;
14088;SDS011;7120;52.890;6.040;2024-02-26T04:08:17;26.23;;;20.60;;
14088;SDS011;7120;52.890;6.040;2024-02-26T04:10:43;21.83;;;17.90;;
14088;SDS011;7120;52.890;6.040;2024-02-26T04:13:08;24.80;;;18.10;;
14088;SDS011;7120;52.890;6.040;2024-02-26T04:15:34;20.80;;;18.07;;
14088;SDS011;7120;52.890;6.040;2024-02-26T04:17:59;23.30;;;18.40;;
14088;SDS011;7120;52.890;6.040;2024-02-26T04:20:25;21.27;;;17.77;;
14088;SDS011;7120;52.890;6.040;2024-02-26T04:22:50;20.37;;;17.80;;
14088;SDS011;7120;52.890;6.040;2024-02-26T04:25:16;20.07;;;17.23;;
14088;SDS011;7120;52.890;6.040;2024-02-26T04:27:41;18.87;;;16.03;;
14088;SDS011;7120;52.890;6.040;2024-02-26T04:30:07;20.57;;;16.47;;
14088;SDS011;7120;52.890;6.040;2024-02-26T04:32:33;18.50;;;15.57;;
14088;SDS011;7120;52.890;6.040;2024-02-26T04:34:59;17.37;;;15.57;;
14088;SDS011;7120;52.890;6.040;2024-02-26T04:37:25;17.33;;;14.67;;
14088;SDS011;7120;52.890;6.040;2024-02-26T04:39:55;17.90;;;16.03;;
14088;SDS011;7120;52.890;6.040;2024-02-26T04:42:22;17.27;;;14.13;;
14088;SDS011;7120;52.890;6.040;2024-02-26T04:44:47;15.73;;;14.03;;
14088;SDS011;7120;52.890;6.040;2024-02-26T04:47:13;17.20;;;14.17;;
14088;SDS011;7120;52.890;6.040;2024-02-26T04:49:39;15.43;;;13.83;;
14088;SDS011;7120;52.890;6.040;2024-02-26T04:52:04;14.73;;;13.27;;
14088;SDS011;7120;52.890;6.040;2024-02-26T04:54:30;14.10;;;12.60;;
14088;SDS011;7120;52.890;6.040;2024-02-26T04:56:55;14.27;;;12.83;;
14088;SDS011;7120;52.890;6.040;2024-02-26T04:59:20;14.37;;;12.87;;
14088;SDS011;7120;52.890;6.040;2024-02-26T05:01:46;14.03;;;12.10;;
14088;SDS011;7120;52.890;6.040;2024-02-26T05:04:12;13.07;;;11.77;;
14088;SDS011;7120;52.890;6.040;2024-02-26T05:06:38;13.43;;;12.03;;
14088;SDS011;7120;52.890;6.040;2024-02-26T05:09:03;11.17;;;9.97;;
14088;SDS011;7120;52.890;6.040;2024-02-26T05:11:29;12.87;;;11.20;;
14088;SDS011;7120;52.890;6.040;2024-02-26T05:13:54;12.23;;;10.50;;
14088;SDS011;7120;52.890;6.040;2024-02-26T05:16:19;13.17;;;11.33;;
14088;SDS011;7120;52.890;6.040;2024-02-26T05:18:46;12.53;;;10.27;;
14088;SDS011;7120;52.890;6.040;2024-02-26T05:21:12;12.07;;;10.10;;
14088;SDS011;7120;52.890;6.040;2024-02-26T05:23:37;10.57;;;9.47;;
14088;SDS011;7120;52.890;6.040;2024-02-26T05:26:02;11.10;;;9.90;;
14088;SDS011;7120;52.890;6.040;2024-02-26T05:28:28;11.73;;;8.30;;
14088;SDS011;7120;52.890;6.040;2024-02-26T05:30:53;10.00;;;8.63;;
14088;SDS011;7120;52.890;6.040;2024-02-26T05:33:19;10.67;;;8.50;;
14088;SDS011;7120;52.890;6.040;2024-02-26T05:35:44;9.00;;;8.13;;
14088;SDS011;7120;52.890;6.040;2024-02-26T05:38:09;8.70;;;7.90;;
14088;SDS011;7120;52.890;6.040;2024-02-26T05:40:35;9.27;;;8.33;;
14088;SDS011;7120;52.890;6.040;2024-02-26T05:43:00;9.17;;;8.13;;
14088;SDS011;7120;52.890;6.040;2024-02-26T05:45:26;8.40;;;7.50;;
14088;SDS011;7120;52.890;6.040;2024-02-26T05:47:51;9.00;;;7.80;;
14088;SDS011;7120;52.890;6.040;2024-02-26T05:50:17;7.60;;;6.80;;
14088;SDS011;7120;52.890;6.040;2024-02-26T05:52:42;7.63;;;6.87;;
14088;SDS011;7120;52.890;6.040;2024-02-26T05:55:08;7.50;;;6.70;;
14088;SDS011;7120;52.890;6.040;2024-02-26T05:57:34;8.07;;;7.13;;
14088;SDS011;7120;52.890;6.040;2024-02-26T05:59:59;7.20;;;6.50;;
14088;SDS011;7120;52.890;6.040;2024-02-26T06:02:29;6.97;;;6.27;;
14088;SDS011;7120;52.890;6.040;2024-02-26T06:04:54;7.83;;;7.03;;
14088;SDS011;7120;52.890;6.040;2024-02-26T06:07:20;6.33;;;5.70;;
14088;SDS011;7120;52.890;6.040;2024-02-26T06:09:45;7.13;;;6.40;;
14088;SDS011;7120;52.890;6.040;2024-02-26T06:12:10;11.27;;;5.97;;
14088;SDS011;7120;52.890;6.040;2024-02-26T06:14:36;6.73;;;6.17;;
14088;SDS011;7120;52.890;6.040;2024-02-26T06:17:01;6.20;;;5.60;;
14088;SDS011;7120;52.890;6.040;2024-02-26T06:19:26;6.50;;;5.90;;
14088;SDS011;7120;52.890;6.040;2024-02-26T06:21:52;6.07;;;5.53;;
14088;SDS011;7120;52.890;6.040;2024-02-26T06:24:17;7.30;;;5.60;;
14088;SDS011;7120;52.890;6.040;2024-02-26T06:26:42;6.57;;;5.63;;
14088;SDS011;7120;52.890;6.040;2024-02-26T06:29:08;5.97;;;5.33;;
14088;SDS011;7120;52.890;6.040;2024-02-26T06:31:33;6.13;;;5.63;;
14088;SDS011;7120;52.890;6.040;2024-02-26T06:33:58;6.57;;;5.97;;
14088;SDS011;7120;52.890;6.040;2024-02-26T06:36:24;5.87;;;5.27;;
14088;SDS011;7120;52.890;6.040;2024-02-26T06:38:50;5.93;;;5.43;;
14088;SDS011;7120;52.890;6.040;2024-02-26T06:41:17;5.83;;;5.20;;
14088;SDS011;7120;52.890;6.040;2024-02-26T06:43:42;5.33;;;4.83;;
14088;SDS011;7120;52.890;6.040;2024-02-26T06:46:07;5.50;;;5.00;;
14088;SDS011;7120;52.890;6.040;2024-02-26T06:48:33;5.23;;;4.73;;
14088;SDS011;7120;52.890;6.040;2024-02-26T06:50:58;5.93;;;5.43;;
14088;SDS011;7120;52.890;6.040;2024-02-26T06:53:23;6.03;;;4.73;;
14088;SDS011;7120;52.890;6.040;2024-02-26T06:55:49;5.90;;;5.40;;
14088;SDS011;7120;52.890;6.040;2024-02-26T06:58:15;7.20;;;4.83;;
14088;SDS011;7120;52.890;6.040;2024-02-26T07:00:40;5.20;;;4.70;;
14088;SDS011;7120;52.890;6.040;2024-02-26T07:03:06;8.77;;;5.53;;
14088;SDS011;7120;52.890;6.040;2024-02-26T07:05:31;4.80;;;4.40;;
14088;SDS011;7120;52.890;6.040;2024-02-26T07:07:56;5.67;;;5.17;;
14088;SDS011;7120;52.890;6.040;2024-02-26T07:10:22;5.50;;;4.97;;
14088;SDS011;7120;52.890;6.040;2024-02-26T07:12:47;5.87;;;5.27;;
14088;SDS011;7120;52.890;6.040;2024-02-26T07:15:12;5.30;;;4.70;;
14088;SDS011;7120;52.890;6.040;2024-02-26T07:17:38;6.00;;;5.37;;
14088;SDS011;7120;52.890;6.040;2024-02-26T07:20:07;6.03;;;4.73;;
14088;SDS011;7120;52.890;6.040;2024-02-26T07:22:33;6.27;;;5.77;;
14088;SDS011;7120;52.890;6.040;2024-02-26T07:24:59;6.30;;;4.63;;
14088;SDS011;7120;52.890;6.040;2024-02-26T07:27:24;6.10;;;4.80;;
14088;SDS011;7120;52.890;6.040;2024-02-26T07:29:49;5.50;;;5.00;;
14088;SDS011;7120;52.890;6.040;2024-02-26T07:32:15;5.20;;;4.80;;
14088;SDS011;7120;52.890;6.040;2024-02-26T07:34:40;5.03;;;4.53;;
14088;SDS011;7120;52.890;6.040;2024-02-26T07:37:09;5.03;;;4.63;;
14088;SDS011;7120;52.890;6.040;2024-02-26T07:39:36;5.20;;;4.80;;
14088;SDS011;7120;52.890;6.040;2024-02-26T07:42:01;5.80;;;5.30;;
14088;SDS011;7120;52.890;6.040;2024-02-26T07:44:27;5.37;;;4.97;;
14088;SDS011;7120;52.890;6.040;2024-02-26T07:46:52;5.63;;;4.93;;
14088;SDS011;7120;52.890;6.040;2024-02-26T07:49:18;4.93;;;4.53;;
14088;SDS011;7120;52.890;6.040;2024-02-26T07:51:43;5.50;;;5.00;;
14088;SDS011;7120;52.890;6.040;2024-02-26T07:54:09;5.67;;;5.17;;
14088;SDS011;7120;52.890;6.040;2024-02-26T07:56:34;5.20;;;4.70;;
14088;SDS011;7120;52.890;6.040;2024-02-26T07:58:59;5.37;;;4.90;;
14088;SDS011;7120;52.890;6.040;2024-02-26T08:01:25;5.33;;;4.90;;
14088;SDS011;7120;52.890;6.040;2024-02-26T08:03:51;6.27;;;4.93;;
14088;SDS011;7120;52.890;6.040;2024-02-26T08:06:18;5.60;;;5.03;;
14088;SDS011;7120;52.890;6.040;2024-02-26T08:08:43;6.83;;;5.37;;
14088;SDS011;7120;52.890;6.040;2024-02-26T08:11:09;5.47;;;4.97;;
14088;SDS011;7120;52.890;6.040;2024-02-26T08:13:34;6.30;;;5.20;;
14088;SDS011;7120;52.890;6.040;2024-02-26T08:16:00;6.57;;;5.50;;
14088;SDS011;7120;52.890;6.040;2024-02-26T08:18:26;5.90;;;5.40;;
14088;SDS011;7120;52.890;6.040;2024-02-26T08:20:51;5.67;;;5.17;;
14088;SDS011;7120;52.890;6.040;2024-02-26T08:23:17;5.50;;;4.93;;
14088;SDS011;7120;52.890;6.040;2024-02-26T08:25:42;5.40;;;4.90;;
14088;SDS011;7120;52.890;6.040;2024-02-26T08:28:08;4.90;;;4.50;;
14088;SDS011;7120;52.890;6.040;2024-02-26T08:30:33;5.77;;;4.47;;
14088;SDS011;7120;52.890;6.040;2024-02-26T08:32:59;5.37;;;4.47;;
14088;SDS011;7120;52.890;6.040;2024-02-26T08:35:24;5.20;;;4.70;;
14088;SDS011;7120;52.890;6.040;2024-02-26T08:37:50;4.83;;;4.40;;
14088;SDS011;7120;52.890;6.040;2024-02-26T08:40:16;5.03;;;4.40;;
14088;SDS011;7120;52.890;6.040;2024-02-26T08:42:41;5.33;;;4.80;;
14088;SDS011;7120;52.890;6.040;2024-02-26T08:45:07;5.03;;;4.63;;
14088;SDS011;7120;52.890;6.040;2024-02-26T08:47:33;4.73;;;4.23;;
14088;SDS011;7120;52.890;6.040;2024-02-26T08:49:58;4.57;;;4.17;;
14088;SDS011;7120;52.890;6.040;2024-02-26T08:52:24;4.57;;;4.17;;
14088;SDS011;7120;52.890;6.040;2024-02-26T08:54:49;6.80;;;4.30;;
14088;SDS011;7120;52.890;6.040;2024-02-26T08:57:15;5.80;;;4.10;;
14088;SDS011;7120;52.890;6.040;2024-02-26T08:59:40;5.47;;;4.43;;
14088;SDS011;7120;52.890;6.040;2024-02-26T09:02:06;4.07;;;3.77;;
14088;SDS011;7120;52.890;6.040;2024-02-26T09:04:33;4.73;;;4.37;;
14088;SDS011;7120;52.890;6.040;2024-02-26T09:06:58;7.00;;;4.83;;
14088;SDS011;7120;52.890;6.040;2024-02-26T09:09:24;3.90;;;3.60;;
14088;SDS011;7120;52.890;6.040;2024-02-26T09:11:51;4.57;;;4.17;;
14088;SDS011;7120;52.890;6.040;2024-02-26T09:14:17;5.37;;;4.33;;
14088;SDS011;7120;52.890;6.040;2024-02-26T09:16:43;4.43;;;4.03;;
14088;SDS011;7120;52.890;6.040;2024-02-26T09:19:08;4.03;;;3.63;;
14088;SDS011;7120;52.890;6.040;2024-02-26T09:21:34;4.33;;;3.57;;
14088;SDS011;7120;52.890;6.040;2024-02-26T09:23:59;4.93;;;3.93;;
14088;SDS011;7120;52.890;6.040;2024-02-26T09:26:24;3.60;;;3.30;;
14088;SDS011;7120;52.890;6.040;2024-02-26T09:28:49;4.57;;;3.70;;
14088;SDS011;7120;52.890;6.040;2024-02-26T09:31:15;3.40;;;3.10;;
14088;SDS011;7120;52.890;6.040;2024-02-26T09:33:41;3.50;;;3.20;;
14088;SDS011;7120;52.890;6.040;2024-02-26T09:36:07;3.70;;;3.40;;
14088;SDS011;7120;52.890;6.040;2024-02-26T09:38:34;3.80;;;3.50;;
14088;SDS011;7120;52.890;6.040;2024-02-26T09:41:02;3.60;;;3.03;;
14088;SDS011;7120;52.890;6.040;2024-02-26T09:43:32;3.53;;;3.23;;
14088;SDS011;7120;52.890;6.040;2024-02-26T09:45:59;3.13;;;2.57;;
14088;SDS011;7120;52.890;6.040;2024-02-26T09:48:25;3.37;;;3.10;;
14088;SDS011;7120;52.890;6.040;2024-02-26T09:50:51;3.60;;;3.30;;
14088;SDS011;7120;52.890;6.040;2024-02-26T09:53:17;3.53;;;3.23;;
14088;SDS011;7120;52.890;6.040;2024-02-26T09:55:43;3.90;;;2.60;;
14088;SDS011;7120;52.890;6.040;2024-02-26T09:58:09;3.53;;;3.23;;
14088;SDS011;7120;52.890;6.040;2024-02-26T10:00:37;3.90;;;3.10;;
14088;SDS011;7120;52.890;6.040;2024-02-26T10:03:05;3.23;;;2.97;;
14088;SDS011;7120;52.890;6.040;2024-02-26T10:05:34;3.53;;;3.23;;
14088;SDS011;7120;52.890;6.040;2024-02-26T10:08:02;3.83;;;3.43;;
14088;SDS011;7120;52.890;6.040;2024-02-26T10:10:29;4.60;;;4.10;;
14088;SDS011;7120;52.890;6.040;2024-02-26T10:12:56;4.17;;;3.67;;
14088;SDS011;7120;52.890;6.040;2024-02-26T10:15:21;5.47;;;3.10;;
14088;SDS011;7120;52.890;6.040;2024-02-26T10:17:47;4.43;;;4.03;;
14088;SDS011;7120;52.890;6.040;2024-02-26T10:22:42;3.00;;;2.80;;
14088;SDS011;7120;52.890;6.040;2024-02-26T10:25:08;3.03;;;2.83;;
14088;SDS011;7120;52.890;6.040;2024-02-26T10:27:34;3.20;;;2.90;;
14088;SDS011;7120;52.890;6.040;2024-02-26T10:30:42;3.10;;;2.83;;
14088;SDS011;7120;52.890;6.040;2024-02-26T10:32:50;3.07;;;2.87;;
14088;SDS011;7120;52.890;6.040;2024-02-26T10:35:16;2.63;;;2.40;;
14088;SDS011;7120;52.890;6.040;2024-02-26T10:37:48;3.50;;;3.13;;
14088;SDS011;7120;52.890;6.040;2024-02-26T10:40:17;2.97;;;2.77;;
14088;SDS011;7120;52.890;6.040;2024-02-26T10:42:43;3.87;;;2.90;;
14088;SDS011;7120;52.890;6.040;2024-02-26T10:45:10;2.90;;;2.70;;
14088;SDS011;7120;52.890;6.040;2024-02-26T10:47:35;3.10;;;2.70;;
14088;SDS011;7120;52.890;6.040;2024-02-26T10:50:02;2.70;;;2.50;;
14088;SDS011;7120;52.890;6.040;2024-02-26T10:52:29;2.90;;;2.60;;
14088;SDS011;7120;52.890;6.040;2024-02-26T10:54:57;2.63;;;2.43;;
14088;SDS011;7120;52.890;6.040;2024-02-26T10:57:27;3.40;;;2.73;;
14088;SDS011;7120;52.890;6.040;2024-02-26T10:59:57;2.87;;;2.23;;
14088;SDS011;7120;52.890;6.040;2024-02-26T11:02:25;2.50;;;2.30;;
14088;SDS011;7120;52.890;6.040;2024-02-26T11:04:51;3.17;;;2.67;;
14088;SDS011;7120;52.890;6.040;2024-02-26T11:07:16;3.27;;;2.57;;
14088;SDS011;7120;52.890;6.040;2024-02-26T11:09:43;2.90;;;2.63;;
14088;SDS011;7120;52.890;6.040;2024-02-26T11:12:11;2.93;;;2.50;;
14088;SDS011;7120;52.890;6.040;2024-02-26T11:14:39;2.63;;;2.43;;
14088;SDS011;7120;52.890;6.040;2024-02-26T11:17:05;3.13;;;2.23;;
14088;SDS011;7120;52.890;6.040;2024-02-26T11:19:33;2.60;;;2.40;;
14088;SDS011;7120;52.890;6.040;2024-02-26T11:22:01;3.30;;;2.13;;
14088;SDS011;7120;52.890;6.040;2024-02-26T11:24:26;2.93;;;2.67;;
14088;SDS011;7120;52.890;6.040;2024-02-26T11:26:54;2.60;;;2.40;;
14088;SDS011;7120;52.890;6.040;2024-02-26T11:29:26;2.43;;;2.23;;
14088;SDS011;7120;52.890;6.040;2024-02-26T11:32:03;3.60;;;2.20;;
14088;SDS011;7120;52.890;6.040;2024-02-26T11:34:28;3.03;;;2.40;;
14088;SDS011;7120;52.890;6.040;2024-02-26T11:36:54;2.67;;;2.47;;
14088;SDS011;7120;52.890;6.040;2024-02-26T11:39:21;1.80;;;1.70;;
14088;SDS011;7120;52.890;6.040;2024-02-26T11:41:47;6.03;;;2.57;;
14088;SDS011;7120;52.890;6.040;2024-02-26T11:44:12;2.33;;;2.13;;
14088;SDS011;7120;52.890;6.040;2024-02-26T11:46:38;3.07;;;2.37;;
14088;SDS011;7120;52.890;6.040;2024-02-26T11:51:51;3.10;;;2.13;;
14088;SDS011;7120;52.890;6.040;2024-02-26T11:59:55;2.40;;;2.20;;
14088;SDS011;7120;52.890;6.040;2024-02-26T12:02:43;3.33;;;2.20;;
14088;SDS011;7120;52.890;6.040;2024-02-26T12:07:53;2.20;;;2.00;;
14088;SDS011;7120;52.890;6.040;2024-02-26T12:12:52;1.90;;;1.80;;
14088;SDS011;7120;52.890;6.040;2024-02-26T12:15:18;5.20;;;2.03;;
14088;SDS011;7120;52.890;6.040;2024-02-26T12:17:48;2.20;;;2.00;;
14088;SDS011;7120;52.890;6.040;2024-02-26T12:20:14;2.17;;;1.93;;
14088;SDS011;7120;52.890;6.040;2024-02-26T12:22:44;2.70;;;2.00;;
14088;SDS011;7120;52.890;6.040;2024-02-26T12:25:12;2.53;;;2.37;;
14088;SDS011;7120;52.890;6.040;2024-02-26T12:27:38;2.60;;;2.40;;
14088;SDS011;7120;52.890;6.040;2024-02-26T12:30:04;2.43;;;2.30;;
14088;SDS011;7120;52.890;6.040;2024-02-26T12:32:32;2.70;;;2.50;;
14088;SDS011;7120;52.890;6.040;2024-02-26T12:34:58;2.80;;;2.60;;
14088;SDS011;7120;52.890;6.040;2024-02-26T12:37:24;3.00;;;2.80;;
14088;SDS011;7120;52.890;6.040;2024-02-26T12:39:50;3.80;;;3.03;;
14088;SDS011;7120;52.890;6.040;2024-02-26T12:42:15;3.27;;;2.87;;
14088;SDS011;7120;52.890;6.040;2024-02-26T12:44:41;3.13;;;2.80;;
14088;SDS011;7120;52.890;6.040;2024-02-26T12:47:06;4.33;;;3.17;;
14088;SDS011;7120;52.890;6.040;2024-02-26T12:49:31;5.57;;;3.83;;
14088;SDS011;7120;52.890;6.040;2024-02-26T12:51:57;3.67;;;3.37;;
14088;SDS011;7120;52.890;6.040;2024-02-26T12:54:29;4.40;;;3.57;;
14088;SDS011;7120;52.890;6.040;2024-02-26T12:56:56;3.63;;;3.33;;
14088;SDS011;7120;52.890;6.040;2024-02-26T12:59:23;4.70;;;3.20;;
14088;SDS011;7120;52.890;6.040;2024-02-26T13:01:48;4.70;;;3.67;;
14088;SDS011;7120;52.890;6.040;2024-02-26T13:04:14;3.90;;;3.60;;
14088;SDS011;7120;52.890;6.040;2024-02-26T13:06:40;3.93;;;3.50;;
14088;SDS011;7120;52.890;6.040;2024-02-26T13:09:05;4.93;;;4.20;;
14088;SDS011;7120;52.890;6.040;2024-02-26T13:11:31;7.60;;;4.80;;
14088;SDS011;7120;52.890;6.040;2024-02-26T13:13:57;4.67;;;4.00;;
14088;SDS011;7120;52.890;6.040;2024-02-26T13:16:24;4.63;;;4.23;;
14088;SDS011;7120;52.890;6.040;2024-02-26T13:18:50;4.70;;;3.90;;
14088;SDS011;7120;52.890;6.040;2024-02-26T13:21:16;4.63;;;3.97;;
14088;SDS011;7120;52.890;6.040;2024-02-26T13:23:43;6.90;;;4.57;;
14088;SDS011;7120;52.890;6.040;2024-02-26T13:26:14;4.03;;;3.63;;
14088;SDS011;7120;52.890;6.040;2024-02-26T13:28:39;7.13;;;4.20;;
14088;SDS011;7120;52.890;6.040;2024-02-26T13:31:05;5.63;;;4.33;;
14088;SDS011;7120;52.890;6.040;2024-02-26T13:33:32;5.23;;;4.73;;
14088;SDS011;7120;52.890;6.040;2024-02-26T13:35:58;5.23;;;4.47;;
14088;SDS011;7120;52.890;6.040;2024-02-26T13:38:24;5.70;;;5.10;;
14088;SDS011;7120;52.890;6.040;2024-02-26T13:40:50;5.00;;;4.60;;
14088;SDS011;7120;52.890;6.040;2024-02-26T13:43:16;5.03;;;4.27;;
14088;SDS011;7120;52.890;6.040;2024-02-26T13:45:42;5.00;;;4.60;;
14088;SDS011;7120;52.890;6.040;2024-02-26T13:48:08;6.70;;;4.73;;
14088;SDS011;7120;52.890;6.040;2024-02-26T13:50:38;4.97;;;4.40;;
14088;SDS011;7120;52.890;6.040;2024-02-26T13:53:04;6.43;;;4.20;;
14088;SDS011;7120;52.890;6.040;2024-02-26T13:55:30;4.60;;;4.23;;
14088;SDS011;7120;52.890;6.040;2024-02-26T13:57:57;6.23;;;4.60;;
14088;SDS011;7120;52.890;6.040;2024-02-26T14:00:23;8.50;;;5.17;;
14088;SDS011;7120;52.890;6.040;2024-02-26T14:02:49;5.83;;;4.90;;
14088;SDS011;7120;52.890;6.040;2024-02-26T14:05:15;4.60;;;4.10;;
14088;SDS011;7120;52.890;6.040;2024-02-26T14:07:41;4.70;;;4.30;;
14088;SDS011;7120;52.890;6.040;2024-02-26T14:10:07;6.83;;;4.87;;
14088;SDS011;7120;52.890;6.040;2024-02-26T14:12:35;8.07;;;5.13;;
14088;SDS011;7120;52.890;6.040;2024-02-26T14:15:00;5.70;;;5.00;;
14088;SDS011;7120;52.890;6.040;2024-02-26T14:17:29;5.63;;;4.70;;
14088;SDS011;7120;52.890;6.040;2024-02-26T14:19:55;5.43;;;4.93;;
14088;SDS011;7120;52.890;6.040;2024-02-26T14:22:20;5.57;;;4.33;;
14088;SDS011;7120;52.890;6.040;2024-02-26T14:24:45;5.03;;;4.30;;
14088;SDS011;7120;52.890;6.040;2024-02-26T14:27:12;5.87;;;4.77;;
14088;SDS011;7120;52.890;6.040;2024-02-26T14:29:40;6.20;;;4.43;;
14088;SDS011;7120;52.890;6.040;2024-02-26T14:32:08;5.23;;;4.73;;
14088;SDS011;7120;52.890;6.040;2024-02-26T14:34:33;5.47;;;4.23;;
14088;SDS011;7120;52.890;6.040;2024-02-26T14:36:59;5.13;;;4.50;;
14088;SDS011;7120;52.890;6.040;2024-02-26T14:39:24;6.13;;;5.23;;
14088;SDS011;7120;52.890;6.040;2024-02-26T14:41:49;5.57;;;5.13;;
14088;SDS011;7120;52.890;6.040;2024-02-26T14:44:15;6.17;;;4.87;;
14088;SDS011;7120;52.890;6.040;2024-02-26T14:46:40;6.60;;;5.20;;
14088;SDS011;7120;52.890;6.040;2024-02-26T14:49:05;5.83;;;5.20;;
14088;SDS011;7120;52.890;6.040;2024-02-26T14:51:31;5.57;;;5.07;;
14088;SDS011;7120;52.890;6.040;2024-02-26T14:53:56;6.10;;;5.50;;
14088;SDS011;7120;52.890;6.040;2024-02-26T14:56:24;6.17;;;5.57;;
14088;SDS011;7120;52.890;6.040;2024-02-26T14:58:49;6.83;;;5.50;;